createdAt,value
2019-04-07T00:00:41.004Z,80.67
2019-04-07T00:01:49.215Z,80.63
2019-04-07T00:02:53.567Z,77.30
2019-04-07T00:03:58.548Z,70.97
2019-04-07T00:05:11.162Z,77.33
2019-04-07T00:06:09.659Z,79.00
2019-04-07T00:07:14.741Z,74.00
2019-04-07T00:08:19.248Z,79.10
2019-04-07T00:09:23.575Z,76.17
2019-04-07T00:10:28.664Z,72.13
2019-04-07T00:11:33.521Z,83.20
2019-04-07T00:12:37.920Z,81.47
2019-04-07T00:13:42.413Z,77.10
2019-04-07T00:14:46.866Z,79.50
2019-04-07T00:15:51.268Z,81.50
2019-04-07T00:16:55.879Z,77.53
2019-04-07T00:18:00.577Z,78.97
2019-04-07T00:19:05.464Z,87.77
2019-04-07T00:20:10.051Z,86.07
2019-04-07T00:21:14.592Z,81.80
2019-04-07T00:22:19.942Z,87.67
2019-04-07T00:23:24.416Z,84.40
2019-04-07T00:24:28.871Z,80.23
2019-04-07T00:25:33.332Z,89.60
2019-04-07T00:26:37.807Z,84.47
2019-04-07T00:27:42.219Z,87.77
2019-04-07T00:28:46.591Z,83.50
2019-04-07T00:29:51.078Z,80.80
2019-04-07T00:30:55.611Z,89.97
2019-04-07T00:32:00.133Z,89.90
2019-04-07T00:33:05.147Z,94.87
2019-04-07T00:34:09.681Z,88.33
2019-04-07T00:35:23.259Z,95.70
2019-04-07T00:36:20.692Z,88.33
2019-04-07T00:37:25.160Z,96.77
2019-04-07T00:38:29.620Z,100.80
2019-04-07T00:39:34.572Z,93.10
2019-04-07T00:40:39.264Z,91.43
2019-04-07T00:41:43.859Z,91.97
2019-04-07T00:42:48.222Z,94.57
2019-04-07T00:43:52.718Z,93.70
2019-04-07T00:44:57.184Z,98.27
2019-04-07T00:46:02.346Z,94.87
2019-04-07T00:47:07.378Z,100.80
2019-04-07T00:48:13.676Z,98.10
2019-04-07T00:49:18.260Z,97.90
2019-04-07T00:50:22.943Z,103.60
2019-04-07T00:51:27.648Z,96.57
2019-04-07T00:52:32.672Z,105.80
2019-04-07T00:53:37.531Z,101.93
2019-04-07T00:54:43.214Z,106.67
2019-04-07T00:55:47.823Z,102.53
2019-04-07T00:56:52.211Z,101.83
2019-04-07T00:57:57.152Z,108.70
2019-04-07T00:59:02.654Z,108.47
2019-04-07T01:00:09.632Z,112.17
2019-04-07T01:01:16.877Z,103.50
2019-04-07T01:02:21.362Z,103.70
2019-04-07T01:03:26.001Z,103.20
2019-04-07T01:04:30.697Z,112.87
2019-04-07T01:05:38.882Z,101.57
2019-04-07T01:06:42.207Z,97.90
2019-04-07T01:07:46.759Z,102.20
2019-04-07T01:08:51.499Z,104.03
2019-04-07T01:09:56.084Z,103.70
2019-04-07T01:11:00.538Z,103.77
2019-04-07T01:12:05.073Z,110.13
2019-04-07T01:13:09.574Z,102.73
2019-04-07T01:14:13.993Z,104.13
2019-04-07T01:15:18.632Z,100.93
2019-04-07T01:16:23.212Z,102.17
2019-04-07T01:17:27.927Z,99.57
2019-04-07T01:18:34.101Z,103.20
2019-04-07T01:19:38.673Z,96.77
2019-04-07T01:20:43.077Z,101.40
2019-04-07T01:21:47.756Z,94.97
2019-04-07T01:22:52.934Z,100.50
2019-04-07T01:23:57.838Z,103.70
2019-04-07T01:25:02.631Z,95.17
2019-04-07T01:26:07.457Z,92.13
2019-04-07T01:27:12.533Z,96.40
2019-04-07T01:28:17.776Z,94.90
2019-04-07T01:29:22.123Z,97.17
2019-04-07T01:30:27.200Z,92.53
2019-04-07T01:31:31.624Z,91.80
2019-04-07T01:32:36.707Z,93.83
2019-04-07T01:33:41.613Z,88.17
2019-04-07T01:34:46.865Z,89.87
2019-04-07T01:35:51.535Z,88.20
2019-04-07T01:36:56.726Z,92.20
2019-04-07T01:38:01.507Z,92.33
2019-04-07T01:39:10.012Z,81.83
2019-04-07T01:40:23.536Z,91.67
2019-04-07T01:41:39.347Z,96.33
2019-04-07T01:43:01.724Z,93.60
2019-04-07T01:44:30.874Z,91.03
2019-04-07T01:45:54.595Z,92.33
2019-04-07T01:47:30.530Z,86.57
2019-04-07T01:48:57.460Z,98.33
2019-04-07T01:50:19.067Z,92.67
2019-04-07T01:51:41.065Z,88.53
2019-04-07T01:53:23.011Z,96.77
2019-04-07T01:54:34.736Z,95.57
2019-04-07T01:55:57.511Z,95.60
2019-04-07T01:57:15.901Z,92.03
2019-04-07T01:58:38.179Z,95.47
2019-04-07T02:00:01.964Z,97.93
2019-04-07T02:01:23.067Z,93.13
2019-04-07T02:02:46.720Z,93.37
2019-04-07T02:04:09.367Z,94.10
2019-04-07T02:05:39.255Z,90.33
2019-04-07T02:07:02.113Z,92.10
2019-04-07T02:08:28.525Z,94.60
2019-04-07T02:09:51.401Z,99.90
2019-04-07T02:11:14.573Z,93.97
2019-04-07T02:12:41.353Z,90.50
2019-04-07T02:14:08.651Z,91.63
2019-04-07T02:15:23.999Z,84.13
2019-04-07T02:16:51.207Z,84.83
2019-04-07T02:18:03.646Z,91.10
2019-04-07T02:19:21.579Z,91.33
2019-04-07T02:21:00.872Z,89.43
2019-04-07T02:22:34.387Z,89.93
2019-04-07T02:23:50.970Z,91.43
2019-04-07T02:25:17.297Z,90.57
2019-04-07T02:26:34.331Z,93.17
2019-04-07T02:27:54.583Z,89.83
2019-04-07T02:29:17.043Z,91.47
2019-04-07T02:30:39.289Z,87.47
2019-04-07T02:32:00.190Z,88.47
2019-04-07T02:33:22.882Z,91.60
2019-04-07T02:34:49.544Z,92.83
2019-04-07T02:36:13.281Z,87.03
2019-04-07T02:37:24.663Z,91.00
2019-04-07T02:39:03.481Z,86.30
2019-04-07T02:40:26.721Z,88.57
2019-04-07T02:41:42.130Z,87.23
2019-04-07T02:42:51.950Z,90.23
2019-04-07T02:44:25.330Z,89.87
2019-04-07T02:45:49.315Z,99.33
2019-04-07T02:47:08.413Z,95.17
2019-04-07T02:48:39.450Z,92.73
2019-04-07T02:50:05.626Z,95.63
2019-04-07T02:51:26.294Z,94.60
2019-04-07T02:53:05.741Z,85.57
2019-04-07T02:54:47.569Z,95.13
2019-04-07T02:56:11.116Z,89.07
2019-04-07T02:57:36.003Z,89.83
2019-04-07T02:58:59.380Z,88.30
2019-04-07T03:00:25.934Z,91.97
2019-04-07T03:01:38.443Z,92.93
2019-04-07T03:03:08.749Z,100.83
2019-04-07T03:04:27.285Z,97.97
2019-04-07T03:05:58.295Z,91.20
2019-04-07T03:07:13.558Z,92.70
2019-04-07T03:08:37.802Z,87.80
2019-04-07T03:10:04.890Z,88.00
2019-04-07T03:11:21.247Z,84.90
2019-04-07T03:12:37.298Z,89.43
2019-04-07T03:13:54.066Z,87.07
2019-04-07T03:15:15.003Z,84.80
2019-04-07T03:16:38.136Z,93.63
2019-04-07T03:17:53.893Z,91.60
2019-04-07T03:19:04.598Z,88.57
2019-04-07T03:20:29.469Z,96.57
2019-04-07T03:21:56.202Z,97.77
2019-04-07T03:23:22.263Z,89.40
2019-04-07T03:24:42.781Z,87.80
2019-04-07T03:26:09.538Z,87.40
2019-04-07T03:27:42.347Z,79.50
2019-04-07T03:29:05.173Z,91.00
2019-04-07T03:30:49.258Z,93.43
2019-04-07T03:32:02.583Z,84.13
2019-04-07T03:33:45.289Z,94.73
2019-04-07T03:35:07.371Z,91.63
2019-04-07T03:36:30.073Z,93.43
2019-04-07T03:37:47.162Z,88.97
2019-04-07T03:38:59.276Z,93.67
2019-04-07T03:40:35.527Z,88.33
2019-04-07T03:41:45.883Z,89.47
2019-04-07T03:43:04.991Z,84.73
2019-04-07T03:44:14.761Z,86.70
2019-04-07T03:45:26.485Z,81.13
2019-04-07T03:46:49.496Z,88.10
2019-04-07T03:48:02.058Z,85.97
2019-04-07T03:49:23.562Z,86.23
2019-04-07T03:50:45.242Z,82.97
2019-04-07T03:52:09.917Z,92.03
2019-04-07T03:53:39.536Z,88.23
2019-04-07T03:54:55.076Z,86.97
2019-04-07T03:56:27.182Z,84.20
2019-04-07T03:57:47.713Z,85.13
2019-04-07T03:59:21.456Z,91.57
2019-04-07T04:01:35.382Z,86.10
2019-04-07T04:02:50.594Z,94.03
2019-04-07T04:04:10.656Z,86.40
2019-04-07T04:05:33.920Z,87.93
2019-04-07T04:07:21.711Z,85.73
2019-04-07T04:08:34.999Z,82.07
2019-04-07T04:09:44.103Z,83.30
2019-04-07T04:10:55.594Z,91.53
2019-04-07T04:12:25.721Z,95.93
2019-04-07T04:13:56.200Z,90.70
2019-04-07T04:15:04.074Z,92.57
2019-04-07T04:16:15.573Z,91.83
2019-04-07T04:17:20.029Z,89.97
2019-04-07T04:18:28.510Z,95.07
2019-04-07T04:19:33.665Z,92.00
2019-04-07T04:20:38.787Z,86.90
2019-04-07T04:21:45.595Z,86.97
2019-04-07T04:22:50.655Z,91.53
2019-04-07T04:23:55.181Z,89.10
2019-04-07T04:24:59.608Z,94.00
2019-04-07T04:26:04.442Z,96.43
2019-04-07T04:27:08.993Z,99.43
2019-04-07T04:28:14.315Z,95.33
2019-04-07T04:29:18.896Z,96.53
2019-04-07T04:30:23.583Z,92.53
2019-04-07T04:31:28.075Z,100.10
2019-04-07T04:32:32.896Z,91.53
2019-04-07T04:33:37.806Z,92.43
2019-04-07T04:34:45.000Z,96.83
2019-04-07T04:35:49.519Z,101.77
2019-04-07T04:36:54.498Z,91.47
2019-04-07T04:37:59.780Z,92.37
2019-04-07T04:39:08.127Z,92.43
2019-04-07T04:40:13.842Z,99.83
2019-04-07T04:41:18.978Z,92.77
2019-04-07T04:42:23.509Z,89.07
2019-04-07T04:43:27.914Z,94.87
2019-04-07T04:44:32.362Z,103.60
2019-04-07T04:45:36.833Z,98.27
2019-04-07T04:46:41.438Z,99.87
2019-04-07T04:47:46.437Z,99.07
2019-04-07T04:48:51.373Z,99.13
2019-04-07T04:49:56.264Z,92.90
2019-04-07T04:51:00.681Z,98.13
2019-04-07T04:52:05.342Z,93.40
2019-04-07T04:53:10.707Z,100.73
2019-04-07T04:54:15.369Z,94.47
2019-04-07T04:55:20.045Z,93.83
2019-04-07T04:56:24.565Z,94.03
2019-04-07T04:57:28.973Z,95.50
2019-04-07T04:58:33.388Z,91.70
2019-04-07T04:59:37.853Z,95.77
2019-04-07T05:00:42.860Z,95.33
2019-04-07T05:01:47.833Z,90.77
2019-04-07T05:02:52.525Z,98.43
2019-04-07T05:03:57.121Z,90.20
2019-04-07T05:05:02.587Z,94.40
2019-04-07T05:06:07.864Z,98.13
2019-04-07T05:07:12.767Z,94.00
2019-04-07T05:08:17.644Z,94.63
2019-04-07T05:09:22.122Z,96.30
2019-04-07T05:10:26.623Z,98.93
2019-04-07T05:11:31.574Z,95.50
2019-04-07T05:12:36.003Z,94.87
2019-04-07T05:13:41.140Z,95.43
2019-04-07T05:14:45.640Z,90.40
2019-04-07T05:15:50.237Z,95.83
2019-04-07T05:16:54.857Z,100.53
2019-04-07T05:17:59.210Z,94.17
2019-04-07T05:19:04.454Z,89.83
2019-04-07T05:20:09.210Z,101.70
2019-04-07T05:21:13.644Z,92.80
2019-04-07T05:22:17.993Z,101.77
2019-04-07T05:23:23.075Z,96.47
2019-04-07T05:24:27.565Z,95.87
2019-04-07T05:25:31.894Z,89.63
2019-04-07T05:26:36.548Z,90.47
2019-04-07T05:27:41.610Z,94.83
2019-04-07T05:28:46.159Z,91.10
2019-04-07T05:29:51.071Z,90.60
2019-04-07T05:30:55.510Z,97.67
2019-04-07T05:32:00.175Z,86.80
2019-04-07T05:33:05.535Z,91.93
2019-04-07T05:34:10.667Z,89.47
2019-04-07T05:35:15.400Z,87.07
2019-04-07T05:36:20.311Z,82.80
2019-04-07T05:37:25.329Z,88.60
2019-04-07T05:38:30.253Z,88.10
2019-04-07T05:39:34.804Z,84.30
2019-04-07T05:40:39.944Z,91.43
2019-04-07T05:41:45.029Z,91.90
2019-04-07T05:42:49.712Z,86.13
2019-04-07T05:43:54.232Z,92.47
2019-04-07T05:44:58.652Z,91.97
2019-04-07T05:46:05.875Z,85.23
2019-04-07T05:47:10.873Z,86.87
2019-04-07T05:48:18.518Z,88.53
2019-04-07T05:49:23.251Z,83.87
2019-04-07T05:50:28.758Z,88.53
2019-04-07T05:51:33.821Z,84.37
2019-04-07T05:52:39.860Z,81.03
2019-04-07T05:53:47.070Z,86.17
2019-04-07T05:54:51.531Z,79.37
2019-04-07T05:55:56.270Z,84.13
2019-04-07T05:57:01.569Z,77.17
2019-04-07T05:58:08.338Z,79.40
2019-04-07T05:59:13.913Z,80.03
2019-04-07T06:00:19.672Z,80.90
2019-04-07T06:01:24.614Z,87.07
2019-04-07T06:02:31.394Z,85.43
2019-04-07T06:03:38.727Z,73.33
2019-04-07T06:04:41.580Z,79.30
2019-04-07T06:05:50.017Z,71.83
2019-04-07T06:07:06.981Z,75.13
2019-04-07T06:08:18.715Z,77.90
2019-04-07T06:09:08.429Z,75.83
2019-04-07T06:10:13.332Z,71.03
2019-04-07T06:11:17.856Z,70.70
2019-04-07T06:12:22.672Z,72.07
2019-04-07T06:13:27.150Z,73.83
2019-04-07T06:14:31.588Z,71.27
2019-04-07T06:15:36.325Z,73.77
2019-04-07T06:16:40.703Z,72.33
2019-04-07T06:17:45.744Z,76.70
2019-04-07T06:18:50.318Z,68.97
2019-04-07T06:19:54.689Z,71.87
2019-04-07T06:20:59.462Z,74.13
2019-04-07T06:22:04.832Z,69.90
2019-04-07T06:23:10.021Z,70.40
2019-04-07T06:24:14.625Z,71.77
2019-04-07T06:25:19.096Z,67.07
2019-04-07T06:26:23.431Z,67.00
2019-04-07T06:27:29.638Z,71.37
2019-04-07T06:28:34.322Z,67.63
2019-04-07T06:29:38.966Z,67.63
2019-04-07T06:30:44.004Z,67.07
2019-04-07T06:31:49.400Z,64.93
2019-04-07T06:32:54.706Z,67.00
2019-04-07T06:33:59.876Z,65.93
2019-04-07T06:35:05.142Z,66.40
2019-04-07T06:36:09.565Z,64.10
2019-04-07T06:37:14.527Z,64.17
2019-04-07T06:38:29.598Z,64.50
2019-04-07T06:39:24.994Z,60.90
2019-04-07T06:40:29.410Z,65.80
2019-04-07T06:41:34.284Z,65.70
2019-04-07T06:42:38.799Z,62.47
2019-04-07T06:43:44.103Z,64.67
2019-04-07T06:44:51.074Z,62.87
2019-04-07T06:46:04.896Z,62.37
2019-04-07T06:47:15.959Z,58.87
2019-04-07T06:48:21.133Z,63.17
2019-04-07T06:49:47.071Z,63.37
2019-04-07T06:50:59.262Z,65.10
2019-04-07T06:52:25.998Z,61.87
2019-04-07T06:53:58.987Z,62.10
2019-04-07T06:55:33.301Z,64.83
2019-04-07T06:56:50.011Z,59.27
2019-04-07T06:58:12.680Z,60.83
2019-04-07T06:59:26.173Z,60.53
2019-04-07T07:00:49.153Z,60.63
2019-04-07T07:02:13.251Z,57.43
2019-04-07T07:03:36.061Z,57.23
2019-04-07T07:05:06.131Z,57.13
2019-04-07T07:06:26.842Z,59.50
2019-04-07T07:07:52.064Z,59.80
2019-04-07T07:09:07.492Z,60.50
2019-04-07T07:10:38.680Z,59.27
2019-04-07T07:11:58.799Z,58.90
2019-04-07T07:13:30.754Z,60.03
2019-04-07T07:15:03.383Z,52.70
2019-04-07T07:16:26.744Z,58.80
2019-04-07T07:17:39.158Z,58.20
2019-04-07T07:18:56.748Z,52.93
2019-04-07T07:20:08.223Z,56.00
2019-04-07T07:21:39.220Z,55.00
2019-04-07T07:22:46.571Z,52.77
2019-04-07T07:23:50.527Z,53.63
2019-04-07T07:24:58.027Z,51.47
2019-04-07T07:26:03.101Z,55.07
2019-04-07T07:27:10.101Z,56.03
2019-04-07T07:28:13.564Z,50.57
2019-04-07T07:29:19.012Z,52.67
2019-04-07T07:30:23.645Z,52.13
2019-04-07T07:31:28.312Z,49.40
2019-04-07T07:32:35.038Z,53.33
2019-04-07T07:33:41.452Z,51.53
2019-04-07T07:34:44.983Z,48.53
2019-04-07T07:35:49.493Z,50.77
2019-04-07T07:36:56.597Z,51.50
2019-04-07T07:38:00.265Z,46.07
2019-04-07T07:39:10.240Z,46.23
2019-04-07T07:40:16.595Z,47.83
2019-04-07T07:41:21.227Z,44.23
2019-04-07T07:42:25.700Z,46.80
2019-04-07T07:43:30.287Z,50.47
2019-04-07T07:44:38.165Z,48.03
2019-04-07T07:45:44.819Z,46.07
2019-04-07T07:46:49.114Z,49.53
2019-04-07T07:47:54.280Z,50.17
2019-04-07T07:49:01.757Z,49.80
2019-04-07T07:50:07.622Z,46.60
2019-04-07T07:51:13.841Z,47.93
2019-04-07T07:52:20.648Z,45.47
2019-04-07T07:53:27.210Z,41.40
2019-04-07T07:54:31.552Z,44.37
2019-04-07T07:55:37.642Z,45.50
2019-04-07T07:56:47.408Z,45.30
2019-04-07T07:57:49.107Z,44.37
2019-04-07T07:58:53.946Z,48.37
2019-04-07T07:59:58.603Z,47.77
2019-04-07T08:01:03.332Z,45.80
2019-04-07T08:02:08.608Z,46.60
2019-04-07T08:03:14.607Z,48.70
2019-04-07T08:04:19.170Z,44.63
2019-04-07T08:05:23.801Z,43.73
2019-04-07T08:06:28.415Z,42.50
2019-04-07T08:07:33.607Z,40.17
2019-04-07T08:08:38.204Z,43.67
2019-04-07T08:09:42.586Z,39.43
2019-04-07T08:10:47.386Z,40.03
2019-04-07T08:11:52.652Z,42.10
2019-04-07T08:12:57.476Z,38.83
2019-04-07T08:14:02.294Z,38.40
2019-04-07T08:15:07.224Z,37.43
2019-04-07T08:16:11.634Z,38.87
2019-04-07T08:17:16.214Z,40.53
2019-04-07T08:18:21.052Z,40.80
2019-04-07T08:19:29.358Z,39.03
2019-04-07T08:20:32.606Z,38.80
2019-04-07T08:21:37.160Z,41.20
2019-04-07T08:22:43.646Z,37.77
2019-04-07T08:23:48.193Z,35.17
2019-04-07T08:24:53.420Z,36.23
2019-04-07T08:25:59.061Z,39.23
2019-04-07T08:27:05.207Z,37.33
2019-04-07T08:28:09.688Z,36.30
2019-04-07T08:29:14.925Z,37.83
2019-04-07T08:30:20.107Z,37.73
2019-04-07T08:31:25.067Z,36.70
2019-04-07T08:32:31.944Z,44.13
2019-04-07T08:33:35.866Z,34.60
2019-04-07T08:34:40.413Z,31.57
2019-04-07T08:35:45.092Z,37.93
2019-04-07T08:36:49.529Z,35.23
2019-04-07T08:37:54.520Z,38.00
2019-04-07T08:38:59.560Z,30.47
2019-04-07T08:40:07.271Z,33.50
2019-04-07T08:41:12.765Z,42.33
2019-04-07T08:42:18.706Z,35.57
2019-04-07T08:43:23.834Z,35.33
2019-04-07T08:44:30.504Z,34.03
2019-04-07T08:45:36.016Z,40.90
2019-04-07T08:46:42.929Z,37.57
2019-04-07T08:47:48.873Z,35.80
2019-04-07T08:48:55.299Z,34.27
2019-04-07T08:49:59.842Z,31.73
2019-04-07T08:51:04.712Z,32.87
2019-04-07T08:52:11.491Z,31.30
2019-04-07T08:53:16.258Z,38.93
2019-04-07T08:54:21.504Z,37.00
2019-04-07T08:55:25.926Z,35.63
2019-04-07T08:56:31.001Z,31.23
2019-04-07T08:57:36.898Z,34.57
2019-04-07T08:58:41.496Z,35.13
2019-04-07T08:59:46.742Z,31.03
2019-04-07T09:00:53.830Z,33.03
2019-04-07T09:01:58.100Z,32.67
2019-04-07T09:03:07.767Z,29.63
2019-04-07T09:04:09.362Z,30.33
2019-04-07T09:05:14.105Z,31.30
2019-04-07T09:06:18.567Z,31.87
2019-04-07T09:07:24.406Z,34.83
2019-04-07T09:08:29.566Z,28.97
2019-04-07T09:09:37.142Z,33.97
2019-04-07T09:10:51.528Z,29.60
2019-04-07T09:11:57.288Z,36.57
2019-04-07T09:13:03.638Z,31.80
2019-04-07T09:14:08.768Z,30.27
2019-04-07T09:15:19.136Z,30.17
2019-04-07T09:16:31.860Z,30.93
2019-04-07T09:17:46.013Z,32.63
2019-04-07T09:19:12.428Z,30.17
2019-04-07T09:20:44.381Z,33.60
2019-04-07T09:21:54.854Z,28.90
2019-04-07T09:23:06.832Z,30.37
2019-04-07T09:24:37.078Z,33.13
2019-04-07T09:26:00.127Z,27.17
2019-04-07T09:27:18.234Z,29.00
2019-04-07T09:28:34.946Z,32.87
2019-04-07T09:29:48.813Z,29.77
2019-04-07T09:31:15.416Z,29.50
2019-04-07T09:32:34.815Z,28.60
2019-04-07T09:34:08.056Z,32.23
2019-04-07T09:35:30.947Z,28.37
2019-04-07T09:37:04.468Z,32.40
2019-04-07T09:38:30.417Z,27.67
2019-04-07T09:39:57.826Z,32.00
2019-04-07T09:41:02.824Z,29.70
2019-04-07T09:42:15.968Z,26.63
2019-04-07T09:43:34.852Z,32.03
2019-04-07T09:45:07.071Z,26.37
2019-04-07T09:46:15.162Z,31.53
2019-04-07T09:47:39.151Z,26.77
2019-04-07T09:49:03.349Z,34.17
2019-04-07T09:50:33.361Z,27.57
2019-04-07T09:51:44.012Z,26.93
2019-04-07T09:53:17.042Z,32.33
2019-04-07T09:54:34.838Z,31.60
2019-04-07T09:55:58.248Z,25.33
2019-04-07T09:57:23.559Z,26.60
2019-04-07T09:59:01.372Z,25.63
2019-04-07T10:01:06.879Z,25.67
2019-04-07T10:02:32.018Z,26.40
2019-04-07T10:04:07.122Z,25.77
2019-04-07T10:05:30.935Z,25.27
2019-04-07T10:06:59.369Z,21.80
2019-04-07T10:08:19.076Z,22.40
2019-04-07T10:09:42.022Z,23.03
2019-04-07T10:11:05.238Z,25.10
2019-04-07T10:12:18.503Z,26.07
2019-04-07T10:13:46.338Z,21.43
2019-04-07T10:15:15.445Z,19.57
2019-04-07T10:16:37.931Z,22.07
2019-04-07T10:18:06.312Z,19.13
2019-04-07T10:19:30.077Z,20.77
2019-04-07T10:21:05.809Z,19.23
2019-04-07T10:22:29.947Z,20.63
2019-04-07T10:23:45.636Z,20.77
2019-04-07T10:24:57.237Z,21.30
2019-04-07T10:26:26.943Z,20.83
2019-04-07T10:27:46.499Z,24.47
2019-04-07T10:28:56.646Z,20.27
2019-04-07T10:30:20.141Z,25.30
2019-04-07T10:31:30.528Z,21.77
2019-04-07T10:32:43.088Z,23.17
2019-04-07T10:34:06.127Z,19.27
2019-04-07T10:35:30.635Z,19.33
2019-04-07T10:36:43.858Z,20.47
2019-04-07T10:38:02.621Z,23.80
2019-04-07T10:39:16.370Z,21.97
2019-04-07T10:40:38.978Z,21.13
2019-04-07T10:42:01.550Z,19.87
2019-04-07T10:43:25.007Z,18.07
2019-04-07T10:44:37.743Z,24.90
2019-04-07T10:45:57.972Z,19.57
2019-04-07T10:47:30.983Z,17.60
2019-04-07T10:48:43.365Z,24.93
2019-04-07T10:50:20.007Z,15.63
2019-04-07T10:51:34.307Z,16.40
2019-04-07T10:53:17.003Z,20.47
2019-04-07T10:54:34.903Z,23.43
2019-04-07T10:55:45.257Z,19.23
2019-04-07T10:56:55.252Z,21.20
2019-04-07T10:58:21.964Z,18.10
2019-04-07T10:59:54.440Z,19.70
2019-04-07T11:01:17.886Z,16.10
2019-04-07T11:02:29.612Z,15.73
2019-04-07T11:03:53.949Z,19.37
2019-04-07T11:05:33.725Z,19.50
2019-04-07T11:07:00.069Z,16.17
2019-04-07T11:08:33.081Z,17.67
2019-04-07T11:10:03.761Z,16.97
2019-04-07T11:11:36.699Z,17.70
2019-04-07T11:12:58.182Z,18.07
2019-04-07T11:14:19.896Z,17.60
2019-04-07T11:15:35.203Z,14.97
2019-04-07T11:16:51.303Z,12.87
2019-04-07T11:18:33.737Z,18.13
2019-04-07T11:20:00.323Z,17.57
2019-04-07T11:21:16.697Z,16.20
2019-04-07T11:22:38.526Z,14.87
2019-04-07T11:24:03.890Z,17.97
2019-04-07T11:25:24.481Z,14.73
2019-04-07T11:26:47.526Z,16.67
2019-04-07T11:28:10.015Z,14.23
2019-04-07T11:29:33.688Z,15.30
2019-04-07T11:31:16.862Z,17.30
2019-04-07T11:32:28.875Z,15.25
2019-04-07T11:33:58.865Z,16.65
2019-04-07T11:35:17.436Z,18.98
2019-04-07T11:36:44.280Z,14.38
2019-04-07T11:38:08.206Z,12.93
2019-04-07T11:39:39.576Z,16.75
2019-04-07T11:41:02.564Z,14.98
2019-04-07T11:42:25.125Z,16.12
2019-04-07T11:43:35.931Z,13.25
2019-04-07T11:44:57.537Z,16.20
2019-04-07T11:46:24.387Z,13.62
2019-04-07T11:47:54.449Z,15.10
2019-04-07T11:49:18.299Z,14.60
2019-04-07T11:50:27.975Z,14.45
2019-04-07T11:51:46.732Z,13.62
2019-04-07T11:53:02.000Z,15.40
2019-04-07T11:54:16.449Z,16.77
2019-04-07T11:55:30.101Z,12.80
2019-04-07T11:56:56.538Z,14.63
2019-04-07T11:58:39.793Z,14.47
2019-04-07T12:00:01.210Z,13.98
2019-04-07T12:01:46.036Z,14.43
2019-04-07T12:03:11.657Z,12.98
2019-04-07T12:04:28.389Z,14.25
2019-04-07T12:06:01.354Z,13.48
2019-04-07T12:07:23.390Z,11.70
2019-04-07T12:08:51.565Z,12.95
2019-04-07T12:10:18.636Z,13.80
2019-04-07T12:11:57.216Z,13.55
2019-04-07T12:13:25.382Z,14.98
2019-04-07T12:14:54.741Z,11.12
2019-04-07T12:16:21.921Z,12.98
2019-04-07T12:17:46.387Z,11.55
2019-04-07T12:19:13.791Z,12.45
2019-04-07T12:20:42.169Z,12.35
2019-04-07T12:21:59.660Z,13.05
2019-04-07T12:23:10.932Z,10.48
2019-04-07T12:24:33.677Z,13.05
2019-04-07T12:25:48.228Z,12.65
2019-04-07T12:27:15.144Z,10.28
2019-04-07T12:28:38.690Z,10.60
2019-04-07T12:30:02.486Z,11.05
2019-04-07T12:31:20.769Z,11.30
2019-04-07T12:32:47.790Z,10.60
2019-04-07T12:34:15.393Z,15.43
2019-04-07T12:35:54.994Z,11.08
2019-04-07T12:37:07.923Z,12.80
2019-04-07T12:38:26.438Z,10.82
2019-04-07T12:39:51.017Z,11.38
2019-04-07T12:41:17.154Z,12.20
2019-04-07T12:42:23.274Z,10.85
2019-04-07T12:43:49.190Z,11.85
2019-04-07T12:45:11.244Z,13.78
2019-04-07T12:46:21.695Z,12.65
2019-04-07T12:48:00.275Z,11.03
2019-04-07T12:49:12.316Z,12.47
2019-04-07T12:50:30.600Z,11.35
2019-04-07T12:51:55.951Z,10.10
2019-04-07T12:53:32.160Z,12.20
2019-04-07T12:54:50.481Z,10.32
2019-04-07T12:56:31.712Z,10.40
2019-04-07T12:57:55.288Z,12.05
2019-04-07T12:59:07.988Z,11.55
2019-04-07T13:00:55.792Z,11.30
2019-04-07T13:02:07.864Z,10.05
2019-04-07T13:03:25.362Z,10.10
2019-04-07T13:04:35.408Z,12.88
2019-04-07T13:05:47.183Z,11.43
2019-04-07T13:07:15.266Z,11.03
2019-04-07T13:08:25.814Z,10.48
2019-04-07T13:09:38.048Z,14.10
2019-04-07T13:10:49.331Z,11.70
2019-04-07T13:12:09.085Z,10.70
2019-04-07T13:13:33.899Z,9.80
2019-04-07T13:14:47.646Z,11.22
2019-04-07T13:16:10.177Z,9.38
2019-04-07T13:17:36.750Z,12.13
2019-04-07T13:18:56.662Z,11.80
2019-04-07T13:20:13.329Z,9.73
2019-04-07T13:21:29.021Z,11.38
2019-04-07T13:22:50.806Z,12.25
2019-04-07T13:24:15.454Z,10.23
2019-04-07T13:25:25.432Z,10.48
2019-04-07T13:26:37.495Z,12.53
2019-04-07T13:27:55.428Z,9.78
2019-04-07T13:29:04.309Z,11.15
2019-04-07T13:30:24.511Z,10.38
2019-04-07T13:31:51.449Z,10.30
2019-04-07T13:33:20.482Z,9.75
2019-04-07T13:34:51.469Z,10.38
2019-04-07T13:36:13.911Z,9.80
2019-04-07T13:37:33.116Z,9.70
2019-04-07T13:38:43.158Z,9.85
2019-04-07T13:40:02.681Z,11.22
2019-04-07T13:41:36.699Z,10.05
2019-04-07T13:42:57.450Z,9.83
2019-04-07T13:44:07.616Z,9.45
2019-04-07T13:45:42.139Z,9.45
2019-04-07T13:47:06.335Z,10.65
2019-04-07T13:48:28.847Z,9.53
2019-04-07T13:49:51.418Z,9.50
2019-04-07T13:51:18.221Z,11.20
2019-04-07T13:52:34.408Z,10.63
2019-04-07T13:53:59.579Z,11.33
2019-04-07T13:55:10.761Z,11.95
2019-04-07T13:56:21.926Z,15.18
2019-04-07T13:57:49.324Z,19.40
2019-04-07T13:59:12.747Z,10.60
2019-04-07T14:00:28.306Z,12.15
2019-04-07T14:01:48.103Z,11.25
2019-04-07T14:03:01.412Z,11.63
2019-04-07T14:04:37.095Z,10.85
2019-04-07T14:06:02.361Z,10.60
2019-04-07T14:07:18.205Z,10.35
2019-04-07T14:08:32.146Z,9.73
2019-04-07T14:09:47.807Z,10.68
2019-04-07T14:11:10.131Z,10.30
2019-04-07T14:12:33.403Z,9.73
2019-04-07T14:14:09.658Z,9.53
2019-04-07T14:15:23.371Z,8.88
2019-04-07T14:16:46.421Z,12.15
2019-04-07T14:18:10.139Z,10.05
2019-04-07T14:19:21.858Z,13.58
2019-04-07T14:20:40.377Z,19.50
2019-04-07T14:21:58.870Z,9.60
2019-04-07T14:23:13.265Z,10.45
2019-04-07T14:24:23.892Z,10.25
2019-04-07T14:26:03.541Z,11.38
2019-04-07T14:27:17.612Z,10.63
2019-04-07T14:28:31.213Z,8.75
2019-04-07T14:29:42.738Z,11.93
2019-04-07T14:30:59.818Z,9.33
2019-04-07T14:32:23.059Z,9.95
2019-04-07T14:33:41.461Z,9.73
2019-04-07T14:34:55.450Z,9.30
2019-04-07T14:36:12.897Z,9.18
2019-04-07T14:37:24.006Z,10.03
2019-04-07T14:39:05.824Z,10.00
2019-04-07T14:40:18.351Z,9.28
2019-04-07T14:41:42.347Z,8.50
2019-04-07T14:43:09.348Z,8.75
2019-04-07T14:44:29.315Z,8.93
2019-04-07T14:45:47.540Z,9.73
2019-04-07T14:47:12.859Z,11.53
2019-04-07T14:48:33.738Z,10.98
2019-04-07T14:50:02.489Z,13.50
2019-04-07T14:51:21.865Z,10.00
2019-04-07T14:52:41.115Z,11.43
2019-04-07T14:54:04.736Z,10.18
2019-04-07T14:55:23.760Z,10.53
2019-04-07T14:56:42.145Z,10.63
2019-04-07T14:58:01.380Z,9.58
2019-04-07T14:59:13.769Z,9.95
2019-04-07T15:00:41.725Z,10.90
2019-04-07T15:01:53.690Z,9.35
2019-04-07T15:02:58.122Z,11.18
2019-04-07T15:04:02.572Z,9.33
2019-04-07T15:05:18.545Z,10.63
2019-04-07T15:06:25.915Z,9.40
2019-04-07T15:07:59.712Z,9.70
2019-04-07T15:09:16.641Z,12.20
2019-04-07T15:10:27.591Z,10.03
2019-04-07T15:11:45.634Z,9.53
2019-04-07T15:12:53.928Z,10.13
2019-04-07T15:14:00.696Z,11.48
2019-04-07T15:15:08.611Z,8.55
2019-04-07T15:16:11.339Z,9.00
2019-04-07T15:17:16.580Z,11.20
2019-04-07T15:18:21.579Z,9.80
2019-04-07T15:19:26.089Z,11.05
2019-04-07T15:20:31.162Z,9.63
2019-04-07T15:21:36.305Z,9.43
2019-04-07T15:22:41.069Z,10.10
2019-04-07T15:23:47.384Z,9.48
2019-04-07T15:24:52.553Z,10.78
2019-04-07T15:25:56.928Z,10.15
2019-04-07T15:27:01.537Z,9.45
2019-04-07T15:28:06.800Z,9.75
2019-04-07T15:29:11.381Z,13.20
2019-04-07T15:30:17.029Z,12.25
2019-04-07T15:31:21.704Z,10.00
2019-04-07T15:32:28.625Z,9.95
2019-04-07T15:33:33.970Z,9.08
2019-04-07T15:34:40.992Z,10.50
2019-04-07T15:35:48.686Z,9.73
2019-04-07T15:36:51.071Z,13.88
2019-04-07T15:37:55.693Z,10.43
2019-04-07T15:39:01.150Z,10.00
2019-04-07T15:40:07.246Z,13.95
2019-04-07T15:41:15.596Z,10.95
2019-04-07T15:42:33.058Z,11.88
2019-04-07T15:43:25.404Z,10.55
2019-04-07T15:44:29.898Z,10.70
2019-04-07T15:45:34.293Z,9.90
2019-04-07T15:46:38.686Z,11.65
2019-04-07T15:47:43.039Z,10.55
2019-04-07T15:48:48.375Z,10.40
2019-04-07T15:49:52.895Z,10.13
2019-04-07T15:51:00.803Z,11.35
2019-04-07T15:52:07.769Z,10.68
2019-04-07T15:53:09.322Z,10.05
2019-04-07T15:54:14.590Z,9.53
2019-04-07T15:55:19.260Z,13.10